createdAt,value
2023-03-16T00:00:32.030Z,20.38
2023-03-16T00:01:35.338Z,22.95
2023-03-16T00:02:37.634Z,19.60
2023-03-16T00:03:41.019Z,20.58
2023-03-16T00:04:43.368Z,18.85
2023-03-16T00:05:47.623Z,13.13
2023-03-16T00:06:50.003Z,9.88
2023-03-16T00:07:53.399Z,6.32
2023-03-16T00:08:59.082Z,5.10
2023-03-16T00:10:03.631Z,6.30
2023-03-16T00:11:07.515Z,9.25
2023-03-16T00:12:16.025Z,8.35
2023-03-16T00:13:19.301Z,6.57
2023-03-16T00:14:23.001Z,5.75
2023-03-16T00:15:25.329Z,5.28
2023-03-16T00:16:28.704Z,5.53
2023-03-16T00:17:31.216Z,5.15
2023-03-16T00:18:38.857Z,5.20
2023-03-16T00:19:46.876Z,5.60
2023-03-16T00:20:53.197Z,5.43
2023-03-16T00:21:55.573Z,6.97
2023-03-16T00:22:58.864Z,5.07
2023-03-16T00:24:03.469Z,5.32
2023-03-16T00:25:07.300Z,5.60
2023-03-16T00:26:13.076Z,5.57
2023-03-16T00:27:17.359Z,6.10
2023-03-16T00:28:19.716Z,5.63
2023-03-16T00:29:23.547Z,5.43
2023-03-16T00:30:27.318Z,5.13
2023-03-16T00:31:33.807Z,5.30
2023-03-16T00:32:37.529Z,4.60
2023-03-16T00:33:42.812Z,5.20
2023-03-16T00:34:45.382Z,5.03
2023-03-16T00:35:50.391Z,5.35
2023-03-16T00:36:52.777Z,5.03
2023-03-16T00:37:57.400Z,4.47
2023-03-16T00:38:59.717Z,4.40
2023-03-16T00:40:04.217Z,4.88
2023-03-16T00:41:07.324Z,4.53
2023-03-16T00:42:12.760Z,5.28
2023-03-16T00:43:18.756Z,5.45
2023-03-16T00:44:22.071Z,5.57
2023-03-16T00:45:25.079Z,7.53
2023-03-16T00:46:28.386Z,14.50
2023-03-16T00:47:31.752Z,20.02
2023-03-16T00:48:35.582Z,20.30
2023-03-16T00:49:37.913Z,19.80
2023-03-16T00:50:42.366Z,14.98
2023-03-16T00:51:46.138Z,15.88
2023-03-16T00:52:49.511Z,11.65
2023-03-16T00:53:51.840Z,10.50
2023-03-16T00:54:56.007Z,10.32
2023-03-16T00:55:58.465Z,7.80
2023-03-16T00:57:01.927Z,8.63
2023-03-16T00:58:05.593Z,7.65
2023-03-16T00:59:08.974Z,8.07
2023-03-16T01:00:16.107Z,7.32
2023-03-16T01:01:21.023Z,7.10
2023-03-16T01:02:24.755Z,6.60
2023-03-16T01:03:28.168Z,5.93
2023-03-16T01:04:30.557Z,5.43
2023-03-16T01:05:34.474Z,6.50
2023-03-16T01:06:39.745Z,6.13
2023-03-16T01:07:45.329Z,6.13
2023-03-16T01:08:47.697Z,5.55
2023-03-16T01:09:51.090Z,5.70
2023-03-16T01:10:53.477Z,5.93
2023-03-16T01:11:56.843Z,5.63
2023-03-16T01:12:59.169Z,5.43
2023-03-16T01:14:03.773Z,5.35
2023-03-16T01:15:07.184Z,5.25
2023-03-16T01:16:11.464Z,5.18
2023-03-16T01:17:14.313Z,6.63
2023-03-16T01:18:17.577Z,9.18
2023-03-16T01:19:19.899Z,8.55
2023-03-16T01:20:23.413Z,7.55
2023-03-16T01:21:25.861Z,8.30
2023-03-16T01:22:29.692Z,8.00
2023-03-16T01:23:32.178Z,7.05
2023-03-16T01:24:35.791Z,7.80
2023-03-16T01:25:38.105Z,7.75
2023-03-16T01:26:41.634Z,8.05
2023-03-16T01:27:43.954Z,7.78
2023-03-16T01:28:47.257Z,7.57
2023-03-16T01:29:51.834Z,7.75
2023-03-16T01:30:57.622Z,8.00
2023-03-16T01:32:00.076Z,6.93
2023-03-16T01:33:03.739Z,7.13
2023-03-16T01:34:06.103Z,6.45
2023-03-16T01:35:10.318Z,6.88
2023-03-16T01:36:13.418Z,7.30
2023-03-16T01:37:16.706Z,8.40
2023-03-16T01:38:19.047Z,9.90
2023-03-16T01:39:22.339Z,9.32
2023-03-16T01:40:24.681Z,9.32
2023-03-16T01:41:28.285Z,9.13
2023-03-16T01:42:30.614Z,9.73
2023-03-16T01:43:34.752Z,9.07
2023-03-16T01:44:55.488Z,9.45
2023-03-16T01:46:22.957Z,9.20
2023-03-16T01:47:25.341Z,8.00
2023-03-16T01:48:29.080Z,8.52
2023-03-16T01:49:32.919Z,8.93
2023-03-16T01:50:36.223Z,9.88
2023-03-16T01:51:44.023Z,9.02
2023-03-16T01:52:46.359Z,7.63
2023-03-16T01:53:53.002Z,6.95
2023-03-16T01:54:57.961Z,6.85
2023-03-16T01:56:01.558Z,6.63
2023-03-16T01:57:06.931Z,5.05
2023-03-16T01:58:09.460Z,5.43
2023-03-16T01:59:16.142Z,6.32
2023-03-16T02:00:23.649Z,5.20
2023-03-16T02:01:28.391Z,5.15
2023-03-16T02:02:33.100Z,4.85
2023-03-16T02:03:35.584Z,5.10
2023-03-16T02:04:44.869Z,4.28
2023-03-16T02:05:50.204Z,4.18
2023-03-16T02:06:55.357Z,4.65
2023-03-16T02:07:58.746Z,3.90
2023-03-16T02:09:02.307Z,4.15
2023-03-16T02:10:05.375Z,4.40
2023-03-16T02:11:10.444Z,3.90
2023-03-16T02:12:17.997Z,3.95
2023-03-16T02:13:21.328Z,4.13
2023-03-16T02:14:24.926Z,4.53
2023-03-16T02:15:29.645Z,4.57
2023-03-16T02:16:31.968Z,4.65
2023-03-16T02:17:37.139Z,4.68
2023-03-16T02:18:39.647Z,4.50
2023-03-16T02:19:46.380Z,4.22
2023-03-16T02:20:50.026Z,5.05
2023-03-16T02:21:55.694Z,5.50
2023-03-16T02:22:58.873Z,5.93
2023-03-16T02:24:03.417Z,5.32
2023-03-16T02:25:06.239Z,4.95
2023-03-16T02:26:12.632Z,4.80
2023-03-16T02:27:17.866Z,3.92
2023-03-16T02:28:24.915Z,4.05
2023-03-16T02:29:33.476Z,4.72
2023-03-16T02:30:38.294Z,4.55
2023-03-16T02:31:40.963Z,3.80
2023-03-16T02:32:44.530Z,3.97
2023-03-16T02:33:48.060Z,4.15
2023-03-16T02:34:51.850Z,3.97
2023-03-16T02:35:54.243Z,3.65
2023-03-16T02:36:58.071Z,3.63
2023-03-16T02:38:01.920Z,5.07
2023-03-16T02:39:05.896Z,4.13
2023-03-16T02:40:19.053Z,4.30
2023-03-16T02:41:22.983Z,5.38
2023-03-16T02:42:26.452Z,5.95
2023-03-16T02:43:33.286Z,10.05
2023-03-16T02:44:40.671Z,6.40
2023-03-16T02:45:47.422Z,6.63
2023-03-16T02:46:50.461Z,6.13
2023-03-16T02:47:54.992Z,5.78
2023-03-16T02:49:00.304Z,5.32
2023-03-16T02:50:06.434Z,5.10
2023-03-16T02:51:08.738Z,5.03
2023-03-16T02:52:13.261Z,4.95
2023-03-16T02:53:16.064Z,4.72
2023-03-16T02:54:19.444Z,4.47
2023-03-16T02:55:21.764Z,4.45
2023-03-16T02:56:25.054Z,4.90
2023-03-16T02:57:27.422Z,4.40
2023-03-16T02:58:32.065Z,4.93
2023-03-16T02:59:34.420Z,5.00
2023-03-16T03:00:38.278Z,5.13
2023-03-16T03:01:41.996Z,4.60
2023-03-16T03:02:45.402Z,4.78
2023-03-16T03:03:48.708Z,4.72
2023-03-16T03:04:54.433Z,4.85
2023-03-16T03:05:57.728Z,4.82
2023-03-16T03:07:04.760Z,4.97
2023-03-16T03:08:08.347Z,4.63
2023-03-16T03:09:11.647Z,5.68
2023-03-16T03:10:15.129Z,5.15
2023-03-16T03:11:19.662Z,6.32
2023-03-16T03:12:22.949Z,7.15
2023-03-16T03:13:25.266Z,7.18
2023-03-16T03:14:29.392Z,7.95
2023-03-16T03:15:31.708Z,7.60
2023-03-16T03:16:35.109Z,7.25
2023-03-16T03:17:38.784Z,5.97
2023-03-16T03:18:42.186Z,5.72
2023-03-16T03:19:44.649Z,5.38
2023-03-16T03:20:47.930Z,5.45
2023-03-16T03:21:50.343Z,6.05
2023-03-16T03:22:53.653Z,6.38
2023-03-16T03:23:55.971Z,6.38
2023-03-16T03:24:59.287Z,5.93
2023-03-16T03:26:03.015Z,6.55
2023-03-16T03:27:06.431Z,5.72
2023-03-16T03:28:09.166Z,5.22
2023-03-16T03:29:12.614Z,5.78
2023-03-16T03:30:16.012Z,5.32
2023-03-16T03:31:20.232Z,5.03
2023-03-16T03:32:22.559Z,4.93
2023-03-16T03:33:27.272Z,4.88
2023-03-16T03:34:29.781Z,5.60
2023-03-16T03:35:33.300Z,5.22
2023-03-16T03:36:36.035Z,5.38
2023-03-16T03:37:39.342Z,5.40
2023-03-16T03:38:41.836Z,4.85
2023-03-16T03:39:45.538Z,5.38
2023-03-16T03:40:49.508Z,4.90
2023-03-16T03:41:54.614Z,5.45
2023-03-16T03:42:56.954Z,5.13
2023-03-16T03:44:00.638Z,5.28
2023-03-16T03:45:02.954Z,4.50
2023-03-16T03:46:06.455Z,5.05
2023-03-16T03:47:08.862Z,5.10
2023-03-16T03:48:12.252Z,5.07
2023-03-16T03:49:16.382Z,4.95
2023-03-16T03:50:19.976Z,5.32
2023-03-16T03:51:22.287Z,5.28
2023-03-16T03:52:25.698Z,5.05
2023-03-16T03:53:27.998Z,5.15
2023-03-16T03:54:31.301Z,5.25
2023-03-16T03:55:33.661Z,5.57
2023-03-16T03:56:37.197Z,5.30
2023-03-16T03:57:39.577Z,5.72
2023-03-16T03:58:42.862Z,5.45
2023-03-16T03:59:45.217Z,5.22
2023-03-16T04:00:48.489Z,5.63
2023-03-16T04:01:53.765Z,5.55
2023-03-16T04:02:57.266Z,5.20
2023-03-16T04:03:59.655Z,5.50
2023-03-16T04:05:04.393Z,5.13
2023-03-16T04:06:08.082Z,5.53
2023-03-16T04:07:11.669Z,5.28
2023-03-16T04:08:13.957Z,5.18
2023-03-16T04:09:17.258Z,6.03
2023-03-16T04:10:19.649Z,5.38
2023-03-16T04:11:22.982Z,5.45
2023-03-16T04:12:25.454Z,5.70
2023-03-16T04:13:28.928Z,6.00
2023-03-16T04:14:31.376Z,5.90
2023-03-16T04:15:38.386Z,7.03
2023-03-16T04:16:40.744Z,6.50
2023-03-16T04:17:44.184Z,6.50
2023-03-16T04:18:46.495Z,6.55
2023-03-16T04:19:49.846Z,7.10
2023-03-16T04:20:53.541Z,6.35
2023-03-16T04:21:56.828Z,6.90
2023-03-16T04:22:59.169Z,6.35
2023-03-16T04:24:05.137Z,6.22
2023-03-16T04:25:07.681Z,6.68
2023-03-16T04:26:11.141Z,5.65
2023-03-16T04:27:13.442Z,6.10
2023-03-16T04:28:17.816Z,6.35
2023-03-16T04:29:20.181Z,6.05
2023-03-16T04:30:24.420Z,6.22
2023-03-16T04:31:26.739Z,6.40
2023-03-16T04:32:30.209Z,6.47
2023-03-16T04:33:33.594Z,6.28
2023-03-16T04:34:36.142Z,6.80
2023-03-16T04:35:39.485Z,6.47
2023-03-16T04:36:43.177Z,6.28
2023-03-16T04:37:46.486Z,5.80
2023-03-16T04:38:48.797Z,6.03
2023-03-16T04:39:52.129Z,6.05
2023-03-16T04:40:54.656Z,6.13
2023-03-16T04:41:57.953Z,6.00
2023-03-16T04:43:00.252Z,6.30
2023-03-16T04:44:04.753Z,5.43
2023-03-16T04:45:08.676Z,6.30
2023-03-16T04:46:12.206Z,7.10
2023-03-16T04:47:15.046Z,6.13
2023-03-16T04:48:18.380Z,6.65
2023-03-16T04:49:21.223Z,7.40
2023-03-16T04:50:24.638Z,6.10
2023-03-16T04:51:27.033Z,6.57
2023-03-16T04:52:31.989Z,5.57
2023-03-16T04:53:34.314Z,6.03
2023-03-16T04:54:37.619Z,6.47
2023-03-16T04:55:39.962Z,6.30
2023-03-16T04:56:43.884Z,5.75
2023-03-16T04:57:46.193Z,6.82
2023-03-16T04:58:50.449Z,6.85
2023-03-16T04:59:52.784Z,6.32
2023-03-16T05:00:56.539Z,6.20
2023-03-16T05:01:58.923Z,6.18
2023-03-16T05:03:02.781Z,6.60
2023-03-16T05:04:05.173Z,6.30
2023-03-16T05:05:08.856Z,6.07
2023-03-16T05:06:11.995Z,6.50
2023-03-16T05:07:15.585Z,5.90
2023-03-16T05:08:19.277Z,6.53
2023-03-16T05:09:22.620Z,6.03
2023-03-16T05:10:24.970Z,6.30
2023-03-16T05:11:28.336Z,6.18
2023-03-16T05:12:30.821Z,5.85
2023-03-16T05:13:34.127Z,5.88
2023-03-16T05:14:36.513Z,5.82
2023-03-16T05:15:39.977Z,5.72
2023-03-16T05:16:42.306Z,5.95
2023-03-16T05:17:46.683Z,5.95
2023-03-16T05:18:49.158Z,5.25
2023-03-16T05:19:52.463Z,6.13
2023-03-16T05:20:55.914Z,5.97
2023-03-16T05:21:59.509Z,6.20
2023-03-16T05:23:01.836Z,6.38
2023-03-16T05:24:06.912Z,7.88
2023-03-16T05:25:14.849Z,8.20
2023-03-16T05:26:18.341Z,9.65
2023-03-16T05:27:20.656Z,10.38
2023-03-16T05:28:23.959Z,11.05
2023-03-16T05:29:26.762Z,10.50
2023-03-16T05:30:31.191Z,9.73
2023-03-16T05:31:33.696Z,9.20
2023-03-16T05:32:37.048Z,9.95
2023-03-16T05:33:39.385Z,9.75
2023-03-16T05:34:43.445Z,10.82
2023-03-16T05:35:45.787Z,8.95
2023-03-16T05:36:49.127Z,7.30
2023-03-16T05:37:51.441Z,7.95
2023-03-16T05:38:54.728Z,8.93
2023-03-16T05:39:58.686Z,8.55
2023-03-16T05:41:05.937Z,8.13
2023-03-16T05:42:08.546Z,9.70
2023-03-16T05:43:12.309Z,9.52
2023-03-16T05:44:14.654Z,8.65
2023-03-16T05:45:18.653Z,9.23
2023-03-16T05:46:22.119Z,9.05
2023-03-16T05:47:24.522Z,8.77
2023-03-16T05:48:27.827Z,7.78
2023-03-16T05:49:30.220Z,7.97
2023-03-16T05:50:33.490Z,7.30
2023-03-16T05:51:35.837Z,8.45
2023-03-16T05:52:39.491Z,7.97
2023-03-16T05:53:41.835Z,7.70
2023-03-16T05:54:45.142Z,8.25
2023-03-16T05:55:53.492Z,7.35
2023-03-16T05:56:56.899Z,7.85
2023-03-16T05:57:59.202Z,9.07
2023-03-16T05:59:02.764Z,9.65
2023-03-16T06:00:13.266Z,9.65
2023-03-16T06:01:16.546Z,9.52
2023-03-16T06:02:18.815Z,8.85
2023-03-16T06:03:22.685Z,9.82
2023-03-16T06:04:25.136Z,9.52
2023-03-16T06:05:30.398Z,9.15
2023-03-16T06:06:32.707Z,9.02
2023-03-16T06:07:37.010Z,9.73
2023-03-16T06:08:39.289Z,9.38
2023-03-16T06:09:42.785Z,9.02
2023-03-16T06:10:47.148Z,8.57
2023-03-16T06:11:51.785Z,9.50
2023-03-16T06:12:54.087Z,9.20
2023-03-16T06:13:58.135Z,8.93
2023-03-16T06:15:01.436Z,8.70
2023-03-16T06:16:04.081Z,7.97
2023-03-16T06:17:07.453Z,8.15
2023-03-16T06:18:09.781Z,7.95
2023-03-16T06:19:13.565Z,7.22
2023-03-16T06:20:17.551Z,7.28
2023-03-16T06:21:20.856Z,6.97
2023-03-16T06:22:24.042Z,6.43
2023-03-16T06:23:27.599Z,6.50
2023-03-16T06:24:31.143Z,5.82
2023-03-16T06:25:33.432Z,6.00
2023-03-16T06:26:36.969Z,5.78
2023-03-16T06:27:40.793Z,5.10
2023-03-16T06:28:44.109Z,5.60
2023-03-16T06:29:46.492Z,5.28
2023-03-16T06:30:49.841Z,5.18
2023-03-16T06:31:54.658Z,4.97
2023-03-16T06:33:00.158Z,4.28
2023-03-16T06:34:02.589Z,4.65
2023-03-16T06:35:06.523Z,5.00
2023-03-16T06:36:10.118Z,5.20
2023-03-16T06:37:12.574Z,4.30
2023-03-16T06:38:15.958Z,4.50
2023-03-16T06:39:18.284Z,4.28
2023-03-16T06:40:21.981Z,5.07
2023-03-16T06:41:25.268Z,4.55
2023-03-16T06:42:27.615Z,4.45
2023-03-16T06:43:32.232Z,4.30
2023-03-16T06:44:34.563Z,4.32
2023-03-16T06:45:38.237Z,4.47
2023-03-16T06:46:40.603Z,4.45
2023-03-16T06:47:44.350Z,4.78
2023-03-16T06:48:48.353Z,4.85
2023-03-16T06:49:54.352Z,3.88
2023-03-16T06:50:56.763Z,4.63
2023-03-16T06:52:00.840Z,3.90
2023-03-16T06:53:03.283Z,5.25
2023-03-16T06:54:06.582Z,4.50
2023-03-16T06:55:09.522Z,4.53
2023-03-16T06:56:12.808Z,4.93
2023-03-16T06:57:15.139Z,4.45
2023-03-16T06:58:18.575Z,4.72
2023-03-16T06:59:22.230Z,4.18
2023-03-16T07:00:26.289Z,4.72
2023-03-16T07:01:29.859Z,4.47
2023-03-16T07:02:35.641Z,4.90
2023-03-16T07:03:38.936Z,4.30
2023-03-16T07:04:41.884Z,4.38
2023-03-16T07:05:45.319Z,4.50
2023-03-16T07:06:47.611Z,5.03
2023-03-16T07:07:50.906Z,4.82
2023-03-16T07:08:53.199Z,4.32
2023-03-16T07:09:56.505Z,4.13
2023-03-16T07:10:59.303Z,4.85
2023-03-16T07:12:03.493Z,4.40
2023-03-16T07:13:05.830Z,5.00
2023-03-16T07:14:09.276Z,4.40
2023-03-16T07:15:13.505Z,4.13
2023-03-16T07:16:16.868Z,4.70
2023-03-16T07:17:20.192Z,4.55
2023-03-16T07:18:22.645Z,3.70
2023-03-16T07:19:25.924Z,4.10
2023-03-16T07:20:31.420Z,4.28
2023-03-16T07:21:39.320Z,3.92
2023-03-16T07:22:42.810Z,4.15
2023-03-16T07:23:46.281Z,3.80
2023-03-16T07:24:52.089Z,4.38
2023-03-16T07:25:55.526Z,4.32
2023-03-16T07:26:57.828Z,4.40
2023-03-16T07:28:01.770Z,4.13
2023-03-16T07:29:05.107Z,4.00
2023-03-16T07:30:12.076Z,3.97
2023-03-16T07:31:15.824Z,4.22
2023-03-16T07:32:19.289Z,4.00
2023-03-16T07:33:22.630Z,4.32
2023-03-16T07:34:25.948Z,3.97
2023-03-16T07:35:28.319Z,3.90
2023-03-16T07:36:31.666Z,3.65
2023-03-16T07:37:35.399Z,3.55
2023-03-16T07:38:37.775Z,3.90
2023-03-16T07:39:42.033Z,4.55
2023-03-16T07:40:44.451Z,3.35
2023-03-16T07:41:47.715Z,4.10
2023-03-16T07:42:50.992Z,3.65
2023-03-16T07:43:53.645Z,4.35
2023-03-16T07:44:56.928Z,3.58
2023-03-16T07:45:59.395Z,3.92
2023-03-16T07:47:04.088Z,4.85
2023-03-16T07:48:06.528Z,4.10
2023-03-16T07:49:10.747Z,4.38
2023-03-16T07:50:13.698Z,4.50
2023-03-16T07:51:17.021Z,3.72
2023-03-16T07:52:19.315Z,3.50
2023-03-16T07:53:22.816Z,4.13
2023-03-16T07:54:26.169Z,4.03
2023-03-16T07:55:29.528Z,4.78
2023-03-16T07:56:47.442Z,4.18
2023-03-16T07:57:51.892Z,4.07
2023-03-16T07:58:55.185Z,4.18
2023-03-16T07:59:58.491Z,3.88
2023-03-16T08:01:02.644Z,3.83
2023-03-16T08:02:06.451Z,4.22
2023-03-16T08:03:09.885Z,4.35
2023-03-16T08:04:13.242Z,4.15
2023-03-16T08:05:16.828Z,3.83
2023-03-16T08:06:19.195Z,4.15
2023-03-16T08:07:22.497Z,4.32
2023-03-16T08:08:25.818Z,4.55
2023-03-16T08:09:28.399Z,4.22
2023-03-16T08:10:32.363Z,4.63
2023-03-16T08:11:35.060Z,3.95
2023-03-16T08:12:38.447Z,4.28
2023-03-16T08:13:43.939Z,4.63
2023-03-16T08:14:47.248Z,5.05
2023-03-16T08:15:55.925Z,4.63
2023-03-16T08:16:58.280Z,4.45
2023-03-16T08:18:03.474Z,3.70
2023-03-16T08:19:07.130Z,3.70
2023-03-16T08:20:10.671Z,3.97
2023-03-16T08:21:14.246Z,4.13
2023-03-16T08:22:17.597Z,3.85
2023-03-16T08:23:20.077Z,3.53
2023-03-16T08:24:23.391Z,3.20
2023-03-16T08:25:26.721Z,3.45
2023-03-16T08:26:29.609Z,3.83
2023-03-16T08:27:32.901Z,3.50
2023-03-16T08:28:35.437Z,4.18
2023-03-16T08:29:38.816Z,4.10
2023-03-16T08:30:44.961Z,3.83
2023-03-16T08:31:48.286Z,2.90
2023-03-16T08:32:50.646Z,3.50
2023-03-16T08:33:55.398Z,3.55
2023-03-16T08:34:58.845Z,3.83
2023-03-16T08:36:02.196Z,2.72
2023-03-16T08:37:05.715Z,2.90
2023-03-16T08:38:09.181Z,3.58
2023-03-16T08:39:12.909Z,3.72
2023-03-16T08:40:17.698Z,2.90
2023-03-16T08:41:21.023Z,3.08
2023-03-16T08:42:23.740Z,2.45
2023-03-16T08:43:27.688Z,2.88
2023-03-16T08:44:30.170Z,3.05
2023-03-16T08:45:33.792Z,2.70
2023-03-16T08:46:36.313Z,3.20
2023-03-16T08:47:40.347Z,3.30
2023-03-16T08:48:43.869Z,3.20
2023-03-16T08:49:47.569Z,3.13
2023-03-16T08:50:51.791Z,2.90
2023-03-16T08:51:54.375Z,2.95
2023-03-16T08:52:57.697Z,3.30
2023-03-16T08:54:01.003Z,3.22
2023-03-16T08:55:05.604Z,4.00
2023-03-16T08:56:10.089Z,3.30
2023-03-16T08:57:12.407Z,3.78
2023-03-16T08:58:15.978Z,4.38
2023-03-16T08:59:29.193Z,3.97
2023-03-16T09:00:33.372Z,3.28
2023-03-16T09:01:36.725Z,3.35
2023-03-16T09:02:40.627Z,3.45
2023-03-16T09:03:46.287Z,3.45
2023-03-16T09:04:50.480Z,3.20
2023-03-16T09:05:53.814Z,3.30
2023-03-16T09:07:10.195Z,3.30
2023-03-16T09:08:13.747Z,3.63
2023-03-16T09:09:16.413Z,2.85
2023-03-16T09:10:20.075Z,3.30
2023-03-16T09:11:23.204Z,2.90
2023-03-16T09:12:26.518Z,3.55
2023-03-16T09:13:28.927Z,3.25
2023-03-16T09:14:32.268Z,3.30
2023-03-16T09:15:36.358Z,3.20
2023-03-16T09:16:39.714Z,3.33
2023-03-16T09:17:43.114Z,3.00
2023-03-16T09:18:46.448Z,2.72
2023-03-16T09:19:52.351Z,3.03
2023-03-16T09:21:00.194Z,2.90
2023-03-16T09:22:04.040Z,3.50
2023-03-16T09:23:06.383Z,3.22
2023-03-16T09:24:10.231Z,2.72
2023-03-16T09:25:12.570Z,2.90
2023-03-16T09:26:16.061Z,3.00
2023-03-16T09:27:18.826Z,3.53
2023-03-16T09:28:22.324Z,3.28
2023-03-16T09:29:25.708Z,3.40
2023-03-16T09:30:28.442Z,3.47
2023-03-16T09:31:32.009Z,3.33
2023-03-16T09:32:35.237Z,3.60
2023-03-16T09:33:38.608Z,3.53
2023-03-16T09:34:40.932Z,3.95
2023-03-16T09:35:46.285Z,3.38
2023-03-16T09:36:49.630Z,3.35
2023-03-16T09:38:05.550Z,4.05
2023-03-16T09:39:09.687Z,3.55
2023-03-16T09:40:21.619Z,3.88
2023-03-16T09:41:32.931Z,3.30
2023-03-16T09:42:38.112Z,3.63
2023-03-16T09:43:47.171Z,4.75
2023-03-16T09:44:56.412Z,3.30
2023-03-16T09:46:05.516Z,3.08
2023-03-16T09:47:11.143Z,2.90
2023-03-16T09:48:13.806Z,3.50
2023-03-16T09:49:18.293Z,3.58
2023-03-16T09:50:22.703Z,3.38
2023-03-16T09:51:35.628Z,3.00
2023-03-16T09:52:42.852Z,3.38
2023-03-16T09:53:47.963Z,4.97
2023-03-16T09:54:53.187Z,3.13
2023-03-16T09:55:59.322Z,3.00
2023-03-16T09:57:02.619Z,3.30
2023-03-16T09:58:06.127Z,3.50
2023-03-16T09:59:11.890Z,3.58
2023-03-16T10:00:18.591Z,4.18
2023-03-16T10:01:28.585Z,3.72
2023-03-16T10:02:41.158Z,3.13
2023-03-16T10:04:03.729Z,3.70
2023-03-16T10:05:09.807Z,3.55
2023-03-16T10:06:13.855Z,3.30
2023-03-16T10:07:27.677Z,4.15
2023-03-16T10:08:32.016Z,3.80
2023-03-16T10:09:38.295Z,3.58
2023-03-16T10:10:47.157Z,2.90
2023-03-16T10:11:54.123Z,2.70
2023-03-16T10:13:00.185Z,3.13
2023-03-16T10:14:05.930Z,3.65
2023-03-16T10:15:11.845Z,2.95
2023-03-16T10:16:18.425Z,3.63
2023-03-16T10:17:23.799Z,3.35
2023-03-16T10:18:29.296Z,3.50
2023-03-16T10:19:36.844Z,3.55
2023-03-16T10:20:42.003Z,3.70
2023-03-16T10:21:45.038Z,4.13
2023-03-16T10:22:50.856Z,3.35
2023-03-16T10:23:55.120Z,3.78
2023-03-16T10:25:03.295Z,3.65
2023-03-16T10:26:13.010Z,3.30
2023-03-16T10:27:19.445Z,3.35
2023-03-16T10:28:23.632Z,3.10
2023-03-16T10:29:25.936Z,3.78
2023-03-16T10:30:31.167Z,5.63
2023-03-16T10:31:37.587Z,13.20
2023-03-16T10:32:40.959Z,10.50
2023-03-16T10:33:44.750Z,4.53
2023-03-16T10:34:49.720Z,3.17
2023-03-16T10:35:55.604Z,4.82
2023-03-16T10:37:02.964Z,4.00
2023-03-16T10:38:09.217Z,4.55
2023-03-16T10:39:13.419Z,2.97
2023-03-16T10:40:20.360Z,2.60
2023-03-16T10:41:25.597Z,3.63
2023-03-16T10:42:28.992Z,2.67
2023-03-16T10:43:32.172Z,2.78
2023-03-16T10:44:41.744Z,2.20
2023-03-16T10:45:48.356Z,2.42
2023-03-16T10:46:54.055Z,2.70
2023-03-16T10:48:06.150Z,1.90
2023-03-16T10:49:21.551Z,2.60
2023-03-16T10:50:24.601Z,2.40
2023-03-16T10:51:29.520Z,2.00
2023-03-16T10:52:34.712Z,2.65
2023-03-16T10:53:42.612Z,2.30
2023-03-16T10:54:50.243Z,2.50
2023-03-16T10:55:58.753Z,2.78
2023-03-16T10:57:01.135Z,2.10
2023-03-16T10:58:04.893Z,2.33
2023-03-16T10:59:15.376Z,2.17
2023-03-16T11:00:21.744Z,2.00
2023-03-16T11:01:27.067Z,2.33
2023-03-16T11:02:32.073Z,1.85
2023-03-16T11:03:41.291Z,1.90
2023-03-16T11:04:46.074Z,1.83
2023-03-16T11:05:48.457Z,1.88
2023-03-16T11:06:56.915Z,1.63
2023-03-16T11:08:00.714Z,1.90
2023-03-16T11:09:08.699Z,2.08
2023-03-16T11:10:15.084Z,1.85
2023-03-16T11:11:18.739Z,2.10
2023-03-16T11:12:26.046Z,2.13
2023-03-16T11:13:34.285Z,1.60
2023-03-16T11:14:37.568Z,2.20
2023-03-16T11:15:43.730Z,1.73
2023-03-16T11:16:51.126Z,1.80
2023-03-16T11:17:54.724Z,2.15
2023-03-16T11:18:58.265Z,1.77
2023-03-16T11:20:14.612Z,2.00
2023-03-16T11:21:19.825Z,1.70
2023-03-16T11:22:23.555Z,1.88
2023-03-16T11:23:31.817Z,2.00
2023-03-16T11:24:42.261Z,2.22
2023-03-16T11:25:48.011Z,1.88
2023-03-16T11:26:55.648Z,2.20
2023-03-16T11:28:04.530Z,2.75
2023-03-16T11:29:09.836Z,2.50
2023-03-16T11:30:16.649Z,3.95
2023-03-16T11:31:21.885Z,2.70
2023-03-16T11:32:28.100Z,3.28
2023-03-16T11:33:32.086Z,2.58
2023-03-16T11:34:36.435Z,2.10
2023-03-16T11:35:56.345Z,2.50
2023-03-16T11:37:06.380Z,2.70
2023-03-16T11:38:13.924Z,2.47
2023-03-16T11:39:22.227Z,2.80
2023-03-16T11:40:35.316Z,2.70
2023-03-16T11:41:45.722Z,2.33
2023-03-16T11:42:54.255Z,2.50
2023-03-16T11:43:57.601Z,1.95
2023-03-16T11:45:05.529Z,1.98
2023-03-16T11:46:11.142Z,1.95
2023-03-16T11:47:26.340Z,2.47
2023-03-16T11:48:36.626Z,2.10
2023-03-16T11:49:47.140Z,2.60
2023-03-16T11:50:55.964Z,3.47
2023-03-16T11:52:04.006Z,3.00
2023-03-16T11:53:12.402Z,3.00
2023-03-16T11:54:29.812Z,2.22
2023-03-16T11:55:42.014Z,1.95
2023-03-16T11:56:46.446Z,1.58
2023-03-16T11:57:55.886Z,1.50
2023-03-16T11:59:03.261Z,1.90
2023-03-16T12:00:15.067Z,1.27
2023-03-16T12:01:22.040Z,1.58
2023-03-16T12:02:34.339Z,1.60
2023-03-16T12:03:43.357Z,2.05
2023-03-16T12:04:51.055Z,2.00
2023-03-16T12:05:57.135Z,1.80
2023-03-16T12:07:09.248Z,1.65
2023-03-16T12:08:17.169Z,1.33
2023-03-16T12:09:45.694Z,1.50
2023-03-16T12:10:54.155Z,1.98
2023-03-16T12:12:00.299Z,2.40
2023-03-16T12:13:20.019Z,1.85
2023-03-16T12:14:25.724Z,3.10
2023-03-16T12:15:33.100Z,5.10
2023-03-16T12:16:49.044Z,8.68
2023-03-16T12:17:53.977Z,7.75
2023-03-16T12:19:01.481Z,3.30
2023-03-16T12:20:06.444Z,4.93
2023-03-16T12:21:14.378Z,4.70
2023-03-16T12:22:21.557Z,5.13
2023-03-16T12:23:27.973Z,4.18
2023-03-16T12:24:35.502Z,2.38
2023-03-16T12:25:40.920Z,3.80
2023-03-16T12:26:46.062Z,4.07
2023-03-16T12:27:49.889Z,3.67
2023-03-16T12:28:55.731Z,2.88
2023-03-16T12:30:03.867Z,4.43
2023-03-16T12:31:10.399Z,3.10
2023-03-16T12:32:17.250Z,2.80
2023-03-16T12:33:23.608Z,2.85
2023-03-16T12:34:29.095Z,3.08
2023-03-16T12:35:37.555Z,13.30
2023-03-16T12:36:57.713Z,11.73
2023-03-16T12:38:05.953Z,10.48
2023-03-16T12:39:12.001Z,8.55
2023-03-16T12:40:27.414Z,5.20
2023-03-16T12:41:35.378Z,2.33
2023-03-16T12:42:47.054Z,1.50
2023-03-16T12:43:55.443Z,1.60
2023-03-16T12:44:59.732Z,1.50
2023-03-16T12:46:07.213Z,1.27
2023-03-16T12:47:15.324Z,1.45
2023-03-16T12:48:22.674Z,1.55
2023-03-16T12:49:26.466Z,1.35
2023-03-16T12:50:28.785Z,1.40
2023-03-16T12:51:36.466Z,2.13
2023-03-16T12:52:43.203Z,2.28
2023-03-16T12:53:47.760Z,2.47
2023-03-16T12:54:52.011Z,1.60
2023-03-16T12:55:56.610Z,2.28
2023-03-16T12:57:04.685Z,1.80
2023-03-16T12:58:09.475Z,2.13
2023-03-16T12:59:18.107Z,2.72
2023-03-16T13:00:21.956Z,2.15
2023-03-16T13:01:28.314Z,1.50
2023-03-16T13:02:32.927Z,2.78
2023-03-16T13:03:35.294Z,2.10
2023-03-16T13:04:41.875Z,1.90
2023-03-16T13:05:50.661Z,1.92
2023-03-16T13:07:03.151Z,1.95
2023-03-16T13:08:06.948Z,1.73
2023-03-16T13:09:12.184Z,1.92
2023-03-16T13:10:16.456Z,2.55
2023-03-16T13:11:20.455Z,2.60
2023-03-16T13:12:23.684Z,2.28
2023-03-16T13:13:28.899Z,2.17
2023-03-16T13:14:35.788Z,1.33
2023-03-16T13:15:40.150Z,2.00
2023-03-16T13:16:43.899Z,2.03
2023-03-16T13:17:47.569Z,1.73
2023-03-16T13:18:52.179Z,1.63
2023-03-16T13:20:02.330Z,1.77
2023-03-16T13:21:16.198Z,2.00
2023-03-16T13:22:20.963Z,1.90
2023-03-16T13:23:26.174Z,1.70
2023-03-16T13:24:35.505Z,2.17
2023-03-16T13:25:43.844Z,1.85
2023-03-16T13:26:48.547Z,1.50
2023-03-16T13:27:52.836Z,1.58
2023-03-16T13:28:57.832Z,2.00
2023-03-16T13:30:02.038Z,1.70
2023-03-16T13:31:06.259Z,1.83
2023-03-16T13:32:10.581Z,2.08
2023-03-16T13:33:19.628Z,1.77
2023-03-16T13:34:24.573Z,1.98
2023-03-16T13:35:27.983Z,2.50
2023-03-16T13:36:33.520Z,1.90
2023-03-16T13:37:36.971Z,1.85
2023-03-16T13:38:39.267Z,1.83
2023-03-16T13:39:42.704Z,1.80
2023-03-16T13:40:48.730Z,1.77
2023-03-16T13:41:59.623Z,2.00
2023-03-16T13:43:03.738Z,1.60
2023-03-16T13:44:13.364Z,2.03
2023-03-16T13:45:18.862Z,1.90
2023-03-16T13:46:22.672Z,1.58
2023-03-16T13:47:28.735Z,2.13
2023-03-16T13:48:31.035Z,2.05
2023-03-16T13:49:35.478Z,1.73
2023-03-16T13:50:41.247Z,2.05
2023-03-16T13:51:45.163Z,1.73
2023-03-16T13:52:58.221Z,2.15
2023-03-16T13:54:06.350Z,1.70
2023-03-16T13:55:16.181Z,1.55
2023-03-16T13:56:23.841Z,1.60
2023-03-16T13:57:27.498Z,1.40
2023-03-16T13:58:34.902Z,1.42
2023-03-16T13:59:41.907Z,1.23
2023-03-16T14:00:45.682Z,2.45
2023-03-16T14:01:49.767Z,1.27
2023-03-16T14:02:53.338Z,1.52
2023-03-16T14:03:58.312Z,1.30
2023-03-16T14:05:11.659Z,1.45
2023-03-16T14:06:19.954Z,1.55
2023-03-16T14:07:24.652Z,1.50
2023-03-16T14:08:27.001Z,1.65
2023-03-16T14:09:31.771Z,1.65
2023-03-16T14:10:35.850Z,1.63
2023-03-16T14:11:39.182Z,1.83
2023-03-16T14:12:52.030Z,1.33
2023-03-16T14:13:55.806Z,1.50
2023-03-16T14:15:00.800Z,1.48
2023-03-16T14:16:04.548Z,1.35
2023-03-16T14:17:11.964Z,1.15
2023-03-16T14:18:16.507Z,1.30
2023-03-16T14:19:22.681Z,1.75
2023-03-16T14:20:27.088Z,1.23
2023-03-16T14:21:30.257Z,1.63